Time;durP1;ratioP1;P1;durP2;ratioP2;P2;SDS_P1;SDS_P2;PMS_P1;PMS_P2;Temp;Humidity;BMP_temperature;BMP_pressure;BME280_temperature;BME280_humidity;BME280_pressure;Samples;Min_cycle;Max_cycle;Signal;HPM_P1;HPM_P2
2023/10/22 00:02:08;;;;;;;5.78;1.33;;;12.80;99.90;;;;;;5113397;28;20111;-75
2023/10/22 00:04:33;;;;;;;3.40;1.13;;;12.80;99.90;;;;;;5095567;28;20031;-76
2023/10/22 00:06:59;;;;;;;6.43;1.20;;;12.80;99.90;;;;;;5096180;28;20100;-76
2023/10/22 00:09:24;;;;;;;5.30;1.15;;;12.70;99.90;;;;;;5113058;28;20038;-76
2023/10/22 00:11:50;;;;;;;7.28;1.88;;;12.70;99.90;;;;;;5114529;28;20047;-75
2023/10/22 00:14:16;;;;;;;4.25;1.00;;;12.60;99.90;;;;;;5097111;28;20044;-76
2023/10/22 00:16:42;;;;;;;6.20;1.13;;;12.60;99.90;;;;;;5096340;28;20402;-75
2023/10/22 00:19:08;;;;;;;4.93;0.95;;;12.60;99.90;;;;;;5096145;28;20035;-75
2023/10/22 00:21:34;;;;;;;4.65;1.60;;;12.60;99.90;;;;;;5112827;28;20035;-75
2023/10/22 00:23:59;;;;;;;8.32;2.90;;;12.60;99.90;;;;;;5113068;28;20046;-76
2023/10/22 00:26:25;;;;;;;4.43;1.23;;;12.60;99.90;;;;;;5077855;28;20067;-76
2023/10/22 00:28:51;;;;;;;4.28;1.13;;;12.60;99.90;;;;;;5113117;28;20039;-76
2023/10/22 00:31:16;;;;;;;3.65;1.15;;;12.60;99.90;;;;;;5112767;28;20039;-76
2023/10/22 00:33:42;;;;;;;6.70;1.50;;;12.50;99.90;;;;;;5077882;28;20116;-76
2023/10/22 00:36:07;;;;;;;3.42;0.80;;;12.50;99.90;;;;;;5096112;28;20495;-75
2023/10/22 00:38:33;;;;;;;4.72;1.00;;;12.50;99.90;;;;;;5096168;28;20051;-75
2023/10/22 00:40:59;;;;;;;3.50;0.90;;;12.60;99.90;;;;;;5112564;28;20502;-75
2023/10/22 00:43:25;;;;;;;4.65;0.93;;;12.60;99.90;;;;;;5112787;28;20062;-76
2023/10/22 00:45:52;;;;;;;3.20;1.10;;;12.60;99.90;;;;;;5112873;28;20507;-75
2023/10/22 00:48:20;;;;;;;3.30;1.13;;;12.60;99.90;;;;;;5112463;28;20571;-75
2023/10/22 00:50:46;;;;;;;8.13;1.05;;;12.60;99.90;;;;;;5097346;28;20043;-76
2023/10/22 00:53:14;;;;;;;5.55;1.20;;;12.60;99.90;;;;;;5094678;28;20524;-76
2023/10/22 00:55:42;;;;;;;3.28;0.95;;;12.60;99.90;;;;;;5095287;28;20054;-76
2023/10/22 00:58:09;;;;;;;2.88;0.80;;;12.60;99.90;;;;;;5078132;28;20057;-75
2023/10/22 01:00:35;;;;;;;3.97;1.10;;;12.60;99.90;;;;;;5112239;28;20039;-75
2023/10/22 01:03:02;;;;;;;4.07;1.48;;;12.60;99.90;;;;;;5094758;28;20082;-75
2023/10/22 01:05:32;;;;;;;4.35;1.00;;;12.60;99.90;;;;;;5113095;28;20047;-75
2023/10/22 01:07:58;;;;;;;2.60;0.70;;;12.60;99.90;;;;;;5095131;28;20498;-75
2023/10/22 01:10:23;;;;;;;4.78;1.40;;;12.60;99.90;;;;;;5094362;28;20431;-75
2023/10/22 01:12:49;;;;;;;3.50;0.60;;;12.80;99.90;;;;;;5111704;28;20047;-75
2023/10/22 01:15:14;;;;;;;3.55;0.75;;;12.80;99.90;;;;;;5113874;28;20032;-75
2023/10/22 01:17:40;;;;;;;3.92;0.90;;;12.90;99.90;;;;;;5112468;28;20185;-75
2023/10/22 01:20:07;;;;;;;3.05;0.77;;;13.00;99.90;;;;;;5094159;28;20080;-75
2023/10/22 01:22:35;;;;;;;3.58;0.65;;;13.00;99.90;;;;;;5093820;28;20159;-74
2023/10/22 01:25:02;;;;;;;4.20;1.20;;;13.00;99.90;;;;;;5097760;28;20039;-75
2023/10/22 01:27:31;;;;;;;1.63;0.50;;;13.10;99.90;;;;;;5094667;28;20035;-75
2023/10/22 01:29:57;;;;;;;5.00;0.90;;;13.10;99.90;;;;;;5093724;28;20039;-75
2023/10/22 01:32:23;;;;;;;3.67;0.80;;;13.10;99.90;;;;;;5093753;28;20062;-75
2023/10/22 01:34:49;;;;;;;5.63;1.02;;;13.10;99.90;;;;;;5094082;28;20126;-75
2023/10/22 01:37:15;;;;;;;3.15;0.80;;;13.10;99.90;;;;;;5094947;28;20040;-75
2023/10/22 01:39:41;;;;;;;5.55;1.00;;;13.10;99.90;;;;;;5093862;28;20040;-75
2023/10/22 01:42:06;;;;;;;2.80;0.80;;;13.10;99.90;;;;;;5093510;28;20445;-75
2023/10/22 01:44:32;;;;;;;3.67;1.05;;;13.10;99.90;;;;;;5096180;28;20579;-75
2023/10/22 01:46:58;;;;;;;5.38;1.13;;;13.10;99.90;;;;;;5093839;28;20131;-75
2023/10/22 01:49:23;;;;;;;5.05;0.95;;;13.10;99.90;;;;;;5094992;28;20658;-75
2023/10/22 01:51:49;;;;;;;2.67;0.70;;;13.10;99.90;;;;;;5093733;28;20043;-75
2023/10/22 01:54:14;;;;;;;2.45;1.05;;;12.90;99.90;;;;;;5112711;28;20483;-75
2023/10/22 01:56:40;;;;;;;2.33;0.70;;;12.90;99.90;;;;;;5114107;28;20036;-75
2023/10/22 01:59:05;;;;;;;2.40;0.70;;;12.80;99.90;;;;;;5095432;28;20455;-75
2023/10/22 02:01:31;;;;;;;2.80;0.80;;;12.80;99.90;;;;;;5093442;28;20050;-75
2023/10/22 02:03:57;;;;;;;4.28;1.00;;;12.70;99.90;;;;;;5094680;28;20433;-75
2023/10/22 02:06:24;;;;;;;4.20;0.95;;;12.70;99.90;;;;;;5095648;28;20046;-74
2023/10/22 02:08:49;;;;;;;2.45;0.80;;;12.60;99.90;;;;;;5093582;28;20039;-74
2023/10/22 02:11:15;;;;;;;4.00;0.80;;;12.60;99.90;;;;;;5094709;28;20391;-74
2023/10/22 02:13:41;;;;;;;4.53;0.85;;;12.50;99.90;;;;;;5094205;28;20039;-75
2023/10/22 02:16:06;;;;;;;4.78;0.80;;;12.50;99.90;;;;;;5112291;28;20028;-74
2023/10/22 02:18:32;;;;;;;1.85;0.52;;;12.50;99.90;;;;;;5094019;28;20117;-74
2023/10/22 02:21:00;;;;;;;5.57;1.10;;;12.50;99.90;;;;;;5093281;28;20040;-74
2023/10/22 02:23:26;;;;;;;5.63;1.23;;;12.40;99.90;;;;;;5097397;28;20486;-74
2023/10/22 02:25:52;;;;;;;2.15;0.95;;;12.40;99.90;;;;;;5098384;28;20051;-74
2023/10/22 02:28:18;;;;;;;3.65;1.15;;;12.40;99.90;;;;;;5098161;28;20403;-75
2023/10/22 02:30:47;;;;;;;6.80;1.30;;;12.30;99.90;;;;;;5098249;28;20036;-74
2023/10/22 02:33:13;;;;;;;10.55;1.42;;;12.40;99.90;;;;;;5098147;28;20442;-77
2023/10/22 02:35:43;;;;;;;4.13;1.10;;;12.30;99.90;;;;;;5102442;22;20051;-74
2023/10/22 02:38:11;;;;;;;4.95;1.65;;;12.30;99.90;;;;;;5097090;28;20036;-73
2023/10/22 02:40:36;;;;;;;2.70;1.13;;;12.20;99.90;;;;;;5096663;28;20605;-73
2023/10/22 02:43:05;;;;;;;4.20;1.75;;;12.20;99.90;;;;;;5115214;28;20044;-74
2023/10/22 02:45:31;;;;;;;4.40;1.05;;;12.20;99.90;;;;;;5114777;28;20040;-75
2023/10/22 02:48:00;;;;;;;5.00;1.10;;;12.20;99.90;;;;;;5096269;28;20060;-73
2023/10/22 02:50:26;;;;;;;3.10;1.13;;;12.10;99.90;;;;;;5114639;28;20028;-74
2023/10/22 02:52:53;;;;;;;4.40;1.10;;;12.10;99.90;;;;;;5115132;28;20035;-73
2023/10/22 02:55:19;;;;;;;3.42;1.05;;;12.10;99.90;;;;;;5096372;28;20084;-74
2023/10/22 02:57:45;;;;;;;4.30;1.30;;;12.10;99.90;;;;;;5114858;28;20433;-74
2023/10/22 03:00:12;;;;;;;4.88;1.55;;;12.00;99.90;;;;;;5096361;28;20036;-74
2023/10/22 03:02:39;;;;;;;3.78;1.10;;;12.10;99.90;;;;;;5096250;28;20465;-74
2023/10/22 03:05:05;;;;;;;2.35;1.33;;;12.10;99.90;;;;;;5114405;28;20564;-74
2023/10/22 03:07:30;;;;;;;4.20;1.00;;;12.10;99.90;;;;;;5114788;28;20028;-74
2023/10/22 03:09:56;;;;;;;3.13;1.00;;;12.00;99.90;;;;;;5096338;28;20032;-73
2023/10/22 03:12:22;;;;;;;4.20;1.33;;;12.10;99.90;;;;;;5096321;28;20043;-74
2023/10/22 03:14:50;;;;;;;5.20;1.50;;;12.10;99.90;;;;;;5114462;28;20039;-74
2023/10/22 03:17:17;;;;;;;5.85;1.30;;;12.10;99.90;;;;;;5114362;28;20093;-73
2023/10/22 03:19:42;;;;;;;2.10;0.82;;;12.10;99.90;;;;;;5114106;28;20468;-73
2023/10/22 03:22:08;;;;;;;3.85;1.65;;;12.10;99.90;;;;;;5078921;28;20036;-74
2023/10/22 03:24:34;;;;;;;4.10;1.60;;;12.00;99.90;;;;;;5114229;28;20110;-74
2023/10/22 03:27:00;;;;;;;5.47;1.52;;;12.10;99.90;;;;;;5114258;28;20027;-74
2023/10/22 03:29:26;;;;;;;2.33;0.98;;;12.10;99.90;;;;;;5095945;28;20117;-74
2023/10/22 03:31:52;;;;;;;4.18;1.02;;;12.10;99.90;;;;;;5095640;28;20050;-73
2023/10/22 03:34:17;;;;;;;3.28;1.15;;;12.10;99.90;;;;;;5094557;28;20043;-73
2023/10/22 03:36:44;;;;;;;3.47;1.30;;;12.10;99.90;;;;;;5095894;28;20074;-73
2023/10/22 03:39:10;;;;;;;2.50;1.08;;;12.10;99.90;;;;;;5095892;28;20483;-73
2023/10/22 03:41:36;;;;;;;5.13;1.27;;;12.10;99.90;;;;;;5113698;28;20035;-73
2023/10/22 03:44:01;;;;;;;2.13;1.33;;;12.10;99.90;;;;;;5113823;28;20031;-73
2023/10/22 03:46:27;;;;;;;2.55;1.00;;;12.10;99.90;;;;;;5113814;28;20628;-73
2023/10/22 03:48:54;;;;;;;6.22;1.60;;;12.10;99.90;;;;;;5095729;28;20035;-73
2023/10/22 03:51:19;;;;;;;3.10;1.88;;;12.10;99.90;;;;;;5095465;28;20040;-73
2023/10/22 03:53:46;;;;;;;2.40;1.23;;;12.20;99.90;;;;;;5113512;28;20035;-73
2023/10/22 03:56:11;;;;;;;3.25;1.05;;;12.20;99.90;;;;;;5113759;28;20054;-73
2023/10/22 03:58:37;;;;;;;3.03;0.88;;;12.20;99.90;;;;;;5113481;28;20035;-73
2023/10/22 04:01:02;;;;;;;3.42;1.02;;;12.20;99.90;;;;;;5095081;28;20091;-74
2023/10/22 04:03:28;;;;;;;3.40;1.00;;;12.30;99.90;;;;;;5095266;28;20036;-74
2023/10/22 04:05:57;;;;;;;2.78;1.08;;;12.30;99.90;;;;;;5113315;28;20168;-74
2023/10/22 04:08:23;;;;;;;4.43;1.27;;;12.20;99.90;;;;;;5113487;28;20070;-73
2023/10/22 04:10:49;;;;;;;1.60;1.48;;;12.30;99.90;;;;;;5113139;28;20063;-73
2023/10/22 04:13:15;;;;;;;3.00;1.00;;;12.30;99.90;;;;;;5095124;28;20067;-73
2023/10/22 04:15:40;;;;;;;3.88;1.45;;;12.20;99.90;;;;;;5113142;28;20127;-74
2023/10/22 04:18:06;;;;;;;3.60;1.00;;;12.30;99.90;;;;;;5113363;28;20395;-74
2023/10/22 04:20:35;;;;;;;3.13;0.95;;;12.30;99.90;;;;;;5112857;28;20035;-73
2023/10/22 04:23:01;;;;;;;3.00;1.38;;;12.20;99.90;;;;;;5094735;28;20039;-73
2023/10/22 04:25:28;;;;;;;1.65;0.80;;;12.30;99.90;;;;;;5095030;28;20096;-73
2023/10/22 04:27:54;;;;;;;2.83;1.42;;;12.20;99.90;;;;;;5094754;28;20122;-73
2023/10/22 04:30:20;;;;;;;1.10;0.90;;;12.30;99.90;;;;;;5094536;28;20074;-73
2023/10/22 04:32:45;;;;;;;3.75;1.23;;;12.30;99.90;;;;;;5112944;28;20032;-73
2023/10/22 04:35:11;;;;;;;3.47;1.00;;;12.30;99.90;;;;;;5094415;28;20101;-73
2023/10/22 04:37:37;;;;;;;3.05;1.25;;;12.30;99.90;;;;;;5112851;28;20043;-74
2023/10/22 04:40:03;;;;;;;1.88;1.13;;;12.30;99.90;;;;;;5112836;28;20118;-73
2023/10/22 04:42:29;;;;;;;1.48;0.85;;;12.20;99.90;;;;;;5094381;28;20040;-73
2023/10/22 04:44:54;;;;;;;3.88;1.02;;;12.20;99.90;;;;;;5112314;28;20027;-74
2023/10/22 04:47:20;;;;;;;2.85;0.90;;;12.20;99.90;;;;;;5112829;28;20043;-73
2023/10/22 04:49:47;;;;;;;3.15;1.08;;;12.20;99.90;;;;;;5112647;28;20071;-73
2023/10/22 04:52:22;;;;;;;2.50;0.90;;;12.20;99.90;;;;;;5112507;28;20512;-73
2023/10/22 04:54:49;;;;;;;1.25;1.05;;;12.20;99.90;;;;;;5112485;28;20495;-73
2023/10/22 04:57:14;;;;;;;3.53;1.00;;;12.10;99.90;;;;;;5112468;28;20528;-73
2023/10/22 04:59:40;;;;;;;1.75;0.90;;;12.10;99.90;;;;;;5112262;28;20043;-74
2023/10/22 05:02:05;;;;;;;1.52;0.80;;;12.10;99.90;;;;;;5112159;28;20048;-74
2023/10/22 05:04:31;;;;;;;1.65;0.98;;;12.10;99.90;;;;;;5112482;28;20042;-73
2023/10/22 05:06:57;;;;;;;2.03;1.00;;;12.10;99.90;;;;;;5094130;28;20506;-73
2023/10/22 05:09:22;;;;;;;2.00;1.00;;;12.20;99.90;;;;;;5112199;28;20035;-74
2023/10/22 05:11:48;;;;;;;1.67;0.80;;;12.20;99.90;;;;;;5112175;28;20050;-73
2023/10/22 05:14:14;;;;;;;1.52;0.93;;;12.20;99.90;;;;;;5112117;28;20051;-73
2023/10/22 05:16:39;;;;;;;1.77;0.93;;;12.20;99.90;;;;;;5112448;28;20560;-73
2023/10/22 05:19:05;;;;;;;1.38;0.70;;;12.20;99.90;;;;;;5112308;28;20040;-73
2023/10/22 05:21:30;;;;;;;1.75;0.90;;;12.20;99.90;;;;;;5111667;28;20028;-73
2023/10/22 05:23:56;;;;;;;1.50;1.02;;;12.20;99.90;;;;;;5112264;28;20494;-73
2023/10/22 05:26:22;;;;;;;1.60;1.40;;;12.10;99.90;;;;;;5093992;28;20054;-73
2023/10/22 05:28:47;;;;;;;1.88;1.30;;;12.10;99.90;;;;;;5112089;28;20116;-73
2023/10/22 05:31:18;;;;;;;3.42;1.25;;;12.20;99.90;;;;;;5094006;28;20412;-73
2023/10/22 05:33:45;;;;;;;4.50;1.75;;;12.10;99.90;;;;;;5093560;28;20050;-73
2023/10/22 05:36:15;;;;;;;3.53;1.65;;;12.20;99.90;;;;;;5093795;28;20134;-73
2023/10/22 05:38:41;;;;;;;3.38;1.70;;;12.20;99.90;;;;;;5093851;28;20047;-73
2023/10/22 05:41:07;;;;;;;3.45;1.80;;;12.20;99.90;;;;;;5093600;28;20039;-73
2023/10/22 05:43:32;;;;;;;5.07;2.20;;;12.30;99.90;;;;;;5112166;28;20059;-73
2023/10/22 05:45:58;;;;;;;3.03;2.10;;;12.30;99.90;;;;;;5093755;28;20046;-73
2023/10/22 05:48:23;;;;;;;5.03;2.25;;;12.30;99.90;;;;;;5093927;28;20130;-73
2023/10/22 05:50:50;;;;;;;3.38;2.22;;;12.30;99.90;;;;;;5111607;28;20100;-73
2023/10/22 05:53:16;;;;;;;4.40;2.30;;;12.30;99.90;;;;;;5090172;28;20044;-73
2023/10/22 05:55:42;;;;;;;3.42;2.35;;;12.40;99.90;;;;;;5090201;28;20042;-73
2023/10/22 05:58:07;;;;;;;4.15;2.80;;;12.30;99.90;;;;;;5092146;28;20040;-73
2023/10/22 06:00:33;;;;;;;3.30;2.30;;;12.30;99.90;;;;;;5077166;28;20435;-73
2023/10/22 06:02:58;;;;;;;2.85;2.33;;;12.30;99.90;;;;;;5094191;28;20085;-73
2023/10/22 06:05:24;;;;;;;2.97;2.53;;;12.40;99.90;;;;;;5094270;28;20127;-73
2023/10/22 06:07:52;;;;;;;3.83;2.80;;;12.40;99.90;;;;;;5095298;28;20411;-73
2023/10/22 06:10:18;;;;;;;2.58;2.15;;;12.40;99.90;;;;;;5095133;28;20111;-73
2023/10/22 06:12:43;;;;;;;2.83;1.90;;;12.30;99.90;;;;;;5094153;28;20086;-73
2023/10/22 06:15:09;;;;;;;3.17;2.15;;;12.40;99.90;;;;;;5093921;28;20506;-73
2023/10/22 06:17:36;;;;;;;2.55;2.10;;;12.40;99.90;;;;;;5093860;28;20044;-73
2023/10/22 06:20:01;;;;;;;2.38;1.70;;;12.40;99.90;;;;;;5094049;28;20048;-72
2023/10/22 06:22:29;;;;;;;2.67;1.75;;;12.50;99.90;;;;;;5093561;28;20051;-72
2023/10/22 06:24:55;;;;;;;2.60;1.45;;;12.40;99.90;;;;;;5094837;28;20036;-73
2023/10/22 06:27:20;;;;;;;4.45;1.40;;;12.60;99.90;;;;;;5076955;28;20039;-73
2023/10/22 06:29:48;;;;;;;3.65;0.95;;;12.50;99.90;;;;;;5093657;28;20534;-73
2023/10/22 06:32:13;;;;;;;2.47;0.88;;;12.60;99.90;;;;;;5094638;28;20055;-72
2023/10/22 06:34:39;;;;;;;1.85;0.90;;;12.50;99.90;;;;;;5092984;28;20036;-73
2023/10/22 06:37:05;;;;;;;3.80;1.10;;;12.50;99.90;;;;;;5093580;28;20048;-73
2023/10/22 06:39:30;;;;;;;1.92;0.80;;;12.50;99.90;;;;;;5092995;28;20036;-73
2023/10/22 06:41:56;;;;;;;3.05;0.90;;;12.40;99.90;;;;;;5094278;28;20040;-73
2023/10/22 06:44:22;;;;;;;3.05;0.95;;;12.40;99.90;;;;;;5094746;28;20119;-73
2023/10/22 06:46:47;;;;;;;2.67;0.80;;;12.30;99.90;;;;;;5094728;28;20491;-73
2023/10/22 06:49:13;;;;;;;3.75;0.93;;;12.30;99.90;;;;;;5093239;28;20036;-73
2023/10/22 06:51:38;;;;;;;1.67;0.65;;;12.30;99.90;;;;;;5094347;28;20047;-74
2023/10/22 06:54:05;;;;;;;4.65;2.00;;;12.20;99.90;;;;;;5094319;28;20036;-73
2023/10/22 06:56:31;;;;;;;3.53;1.48;;;12.20;99.90;;;;;;5094677;28;20081;-73
2023/10/22 06:58:57;;;;;;;3.53;1.42;;;12.20;99.90;;;;;;5094448;28;20078;-73
2023/10/22 07:01:22;;;;;;;4.78;1.15;;;12.10;99.90;;;;;;5092949;28;20044;-73
2023/10/22 07:03:48;;;;;;;2.42;1.02;;;12.10;99.90;;;;;;5093119;28;20621;-73
2023/10/22 07:06:14;;;;;;;5.70;1.75;;;12.10;99.90;;;;;;5094390;28;20032;-73
2023/10/22 07:08:40;;;;;;;3.25;1.25;;;12.00;99.90;;;;;;5094145;28;20121;-73
2023/10/22 07:11:05;;;;;;;4.05;1.40;;;12.00;99.90;;;;;;5093908;28;20054;-73
2023/10/22 07:13:31;;;;;;;5.05;1.30;;;11.90;99.90;;;;;;5108324;28;20036;-73
2023/10/22 07:15:57;;;;;;;4.20;2.08;;;12.00;99.90;;;;;;5114702;28;20040;-73
2023/10/22 07:18:23;;;;;;;7.38;1.65;;;11.80;99.90;;;;;;5114359;28;20035;-73
2023/10/22 07:20:49;;;;;;;6.63;2.85;;;12.00;99.90;;;;;;5114108;28;20031;-73
2023/10/22 07:23:15;;;;;;;6.20;1.55;;;11.90;99.90;;;;;;5114237;28;20036;-73
2023/10/22 07:25:41;;;;;;;6.28;1.75;;;11.90;99.90;;;;;;5114513;28;20111;-73
2023/10/22 07:28:06;;;;;;;8.23;2.40;;;11.90;99.90;;;;;;5113840;28;20107;-73
2023/10/22 07:30:32;;;;;;;6.28;2.88;;;11.90;99.90;;;;;;5095546;28;20123;-73
2023/10/22 07:32:58;;;;;;;11.32;2.10;;;12.00;99.90;;;;;;5113591;28;20043;-73
2023/10/22 07:35:24;;;;;;;5.30;2.65;;;11.90;99.90;;;;;;5113401;28;20032;-73
2023/10/22 07:37:50;;;;;;;10.73;2.47;;;12.00;99.90;;;;;;5113444;28;20027;-74
2023/10/22 07:40:19;;;;;;;9.98;2.35;;;11.90;99.90;;;;;;5095165;28;20036;-74
2023/10/22 07:42:45;;;;;;;12.60;3.20;;;11.90;99.90;;;;;;5095083;28;20096;-73
2023/10/22 07:45:11;;;;;;;8.10;2.60;;;12.00;99.90;;;;;;5095077;28;20479;-73
2023/10/22 07:47:38;;;;;;;6.15;2.80;;;11.90;99.90;;;;;;5094982;28;20031;-73
2023/10/22 07:50:04;;;;;;;5.75;3.03;;;12.00;99.90;;;;;;5113156;28;20039;-73
2023/10/22 07:52:40;;;;;;;9.18;3.38;;;12.00;99.90;;;;;;5113085;28;20039;-74
2023/10/22 07:55:07;;;;;;;9.45;2.53;;;12.00;99.90;;;;;;5113408;28;20083;-74
2023/10/22 07:57:33;;;;;;;6.30;3.13;;;12.00;99.90;;;;;;5113419;28;20036;-73
2023/10/22 07:59:59;;;;;;;10.50;4.90;;;11.90;99.90;;;;;;5112769;28;20078;-74
2023/10/22 08:02:25;;;;;;;8.68;3.72;;;11.90;99.90;;;;;;5112697;28;20067;-74
2023/10/22 08:04:50;;;;;;;7.25;3.10;;;12.00;99.90;;;;;;5112524;28;20035;-73
2023/10/22 08:07:19;;;;;;;6.93;3.97;;;12.00;99.90;;;;;;5110182;28;20504;-74
2023/10/22 08:09:45;;;;;;;13.70;3.75;;;11.90;99.90;;;;;;5094429;28;20031;-74
2023/10/22 08:12:11;;;;;;;10.00;3.28;;;12.00;99.90;;;;;;5112190;28;20081;-73
2023/10/22 08:14:37;;;;;;;9.85;3.45;;;12.00;99.90;;;;;;5112676;28;20105;-73
2023/10/22 08:17:02;;;;;;;6.40;2.92;;;12.00;99.90;;;;;;5112444;28;20557;-73
2023/10/22 08:19:28;;;;;;;5.43;3.20;;;12.00;99.90;;;;;;5094447;28;20039;-74
2023/10/22 08:21:54;;;;;;;8.93;2.90;;;11.90;99.90;;;;;;5094236;28;20031;-73
2023/10/22 08:24:19;;;;;;;5.50;2.80;;;12.00;99.90;;;;;;5113007;28;20633;-73
2023/10/22 08:26:45;;;;;;;7.75;3.33;;;12.00;99.90;;;;;;5113161;28;20108;-73
2023/10/22 08:29:10;;;;;;;5.80;3.72;;;12.00;99.90;;;;;;5095013;28;20127;-74
2023/10/22 08:31:36;;;;;;;6.95;2.83;;;12.10;99.90;;;;;;5094389;28;20535;-73
2023/10/22 08:34:01;;;;;;;8.10;2.90;;;12.00;99.90;;;;;;5116809;22;20040;-75
2023/10/22 08:36:27;;;;;;;9.93;3.35;;;12.10;99.90;;;;;;5111604;28;20043;-77
2023/10/22 08:38:53;;;;;;;8.85;3.38;;;12.10;99.90;;;;;;5112859;28;20096;-76
2023/10/22 08:41:23;;;;;;;7.82;3.67;;;12.20;99.90;;;;;;5112629;28;20086;-76
2023/10/22 08:43:49;;;;;;;5.13;3.05;;;12.20;99.90;;;;;;5111427;28;20067;-76
2023/10/22 08:46:15;;;;;;;9.60;3.15;;;12.20;99.90;;;;;;5090554;28;20040;-76
2023/10/22 08:48:41;;;;;;;8.52;3.30;;;12.30;99.90;;;;;;5092055;28;20039;-76
2023/10/22 08:51:10;;;;;;;9.63;2.67;;;12.30;99.90;;;;;;5090778;28;20036;-77
2023/10/22 08:53:36;;;;;;;7.53;2.88;;;12.30;99.90;;;;;;5091201;28;20043;-78
2023/10/22 08:56:02;;;;;;;7.13;2.55;;;12.30;99.90;;;;;;5090727;28;20495;-78
2023/10/22 08:58:28;;;;;;;7.22;2.20;;;12.40;99.90;;;;;;5074536;28;20123;-77
2023/10/22 09:00:54;;;;;;;6.03;2.03;;;12.40;99.90;;;;;;5091389;28;20546;-78
2023/10/22 09:03:21;;;;;;;5.28;2.25;;;12.30;99.90;;;;;;5092668;28;20403;-77
2023/10/22 09:05:48;;;;;;;6.72;2.45;;;12.40;99.90;;;;;;5091017;28;20042;-77
2023/10/22 09:08:14;;;;;;;6.50;2.83;;;12.50;99.90;;;;;;5090544;28;20036;-77
2023/10/22 09:10:40;;;;;;;6.07;2.78;;;12.50;99.90;;;;;;5091149;28;20420;-76
2023/10/22 09:13:22;;;;;;;2.63;1.80;;;12.50;99.90;;;;;;5090820;28;20036;-76
2023/10/22 09:15:54;;;;;;;6.60;1.98;;;12.40;99.90;;;;;;5090481;28;20495;-76
2023/10/22 09:18:20;;;;;;;6.93;2.05;;;12.50;99.90;;;;;;5060323;28;20025;-76
2023/10/22 09:20:46;;;;;;;4.65;1.90;;;12.60;99.90;;;;;;5056518;28;20178;-74
2023/10/22 09:23:22;;;;;;;4.38;1.58;;;12.50;99.90;;;;;;5087511;28;20496;-74
2023/10/22 09:26:00;;;;;;;5.95;1.85;;;12.60;99.90;;;;;;5066987;28;20028;-75
2023/10/22 09:28:27;;;;;;;6.22;1.85;;;12.60;99.90;;;;;;5070115;28;20519;-76
2023/10/22 09:31:02;;;;;;;6.90;1.50;;;12.70;99.90;;;;;;5053268;28;20198;-77
2023/10/22 09:33:32;;;;;;;5.63;1.48;;;12.80;99.90;;;;;;5056625;28;20063;-76
2023/10/22 09:36:04;;;;;;;3.90;1.52;;;12.80;99.90;;;;;;5057265;28;20098;-76
2023/10/22 09:38:49;;;;;;;4.40;1.40;;;13.00;99.90;;;;;;5074164;28;20036;-77
2023/10/22 09:41:26;;;;;;;2.25;1.20;;;13.10;99.90;;;;;;5073567;28;20138;-76
2023/10/22 09:43:54;;;;;;;4.05;0.77;;;13.20;99.90;;;;;;5074017;28;20093;-76
2023/10/22 09:46:20;;;;;;;3.30;1.15;;;13.20;99.90;;;;;;5073902;28;20033;-77
2023/10/22 09:48:48;;;;;;;1.63;0.90;;;13.20;99.90;;;;;;5084282;28;20040;-77
2023/10/22 09:51:15;;;;;;;9.13;1.30;;;13.30;99.90;;;;;;5077657;28;20071;-76
2023/10/22 09:53:49;;;;;;;2.67;1.30;;;13.20;99.90;;;;;;5073900;28;20044;-75
2023/10/22 09:56:19;;;;;;;6.03;1.55;;;13.10;99.90;;;;;;5073830;28;20075;-76
2023/10/22 09:58:48;;;;;;;5.18;1.75;;;13.00;99.90;;;;;;5073957;28;20047;-76
2023/10/22 10:01:15;;;;;;;8.77;1.15;;;13.00;99.90;;;;;;5074092;28;20531;-76
2023/10/22 10:03:42;;;;;;;2.13;0.60;;;13.00;99.90;;;;;;5073937;28;20115;-76
2023/10/22 10:06:08;;;;;;;3.80;0.93;;;13.10;99.90;;;;;;5073798;28;20043;-79
2023/10/22 10:08:37;;;;;;;7.70;1.40;;;13.10;99.90;;;;;;5058484;28;20483;-77
2023/10/22 10:11:11;;;;;;;3.55;0.85;;;13.00;99.90;;;;;;5073501;28;20044;-78
2023/10/22 10:13:37;;;;;;;3.17;0.85;;;13.10;99.90;;;;;;5074843;28;20064;-77
2023/10/22 10:16:06;;;;;;;1.23;0.80;;;13.20;99.90;;;;;;5074048;28;20118;-74
2023/10/22 10:19:08;;;;;;;2.25;0.90;;;13.10;99.90;;;;;;5073695;28;20407;-75
2023/10/22 10:21:33;;;;;;;4.95;0.95;;;13.10;99.90;;;;;;5073347;28;20127;-75
2023/10/22 10:24:17;;;;;;;4.68;1.00;;;13.00;99.90;;;;;;5056645;28;20572;-76
2023/10/22 10:26:44;;;;;;;2.35;0.93;;;12.90;99.90;;;;;;5056104;28;20044;-75
2023/10/22 10:29:15;;;;;;;2.75;0.85;;;12.90;99.90;;;;;;5070966;28;20369;-75
2023/10/22 10:31:53;;;;;;;3.47;1.35;;;12.80;99.90;;;;;;5073092;28;20044;-76
2023/10/22 10:34:22;;;;;;;3.45;0.82;;;12.80;99.90;;;;;;5072830;28;20048;-76
2023/10/22 10:36:49;;;;;;;5.13;1.23;;;12.80;99.90;;;;;;5073027;28;20036;-76
2023/10/22 10:39:46;;;;;;;2.50;0.95;;;12.80;99.90;;;;;;5073011;28;20055;-77
2023/10/22 10:42:13;;;;;;;3.90;0.60;;;12.80;99.90;;;;;;5074306;28;20059;-76
2023/10/22 10:45:03;;;;;;;1.75;0.60;;;12.70;99.90;;;;;;5072514;28;20107;-74
2023/10/22 10:47:29;;;;;;;0.82;0.43;;;12.70;99.90;;;;;;5073173;28;20400;-74
2023/10/22 10:50:10;;;;;;;1.02;0.47;;;12.80;99.90;;;;;;5073029;28;20043;-74
2023/10/22 10:52:48;;;;;;;2.28;0.70;;;12.80;99.90;;;;;;5072958;28;20040;-76
2023/10/22 10:55:19;;;;;;;3.17;1.00;;;12.80;99.90;;;;;;5074028;28;20044;-76
2023/10/22 10:57:50;;;;;;;1.88;0.75;;;12.80;99.90;;;;;;5072795;28;20051;-74
2023/10/22 11:00:26;;;;;;;2.55;0.63;;;12.90;99.90;;;;;;5072741;28;20040;-75
2023/10/22 11:02:53;;;;;;;1.98;0.60;;;12.90;99.90;;;;;;5074605;28;20590;-75
2023/10/22 11:05:39;;;;;;;0.93;0.45;;;13.00;99.90;;;;;;5059971;28;20139;-75
2023/10/22 11:08:10;;;;;;;5.45;0.75;;;13.00;99.90;;;;;;5075048;28;20036;-75
2023/10/22 11:10:36;;;;;;;1.20;0.45;;;13.00;99.90;;;;;;5072635;28;20032;-75
2023/10/22 11:13:06;;;;;;;2.53;0.70;;;13.00;99.90;;;;;;5056238;28;20481;-75
2023/10/22 11:15:36;;;;;;;1.40;1.13;;;13.00;99.90;;;;;;5056200;28;20067;-75
2023/10/22 11:18:11;;;;;;;2.90;0.40;;;13.10;99.90;;;;;;5055937;28;20033;-76
2023/10/22 11:20:41;;;;;;;2.85;0.80;;;13.00;99.90;;;;;;5072173;28;20405;-77
2023/10/22 11:23:19;;;;;;;1.48;0.60;;;13.00;99.90;;;;;;5055990;28;20538;-76
2023/10/22 11:25:45;;;;;;;2.03;0.43;;;12.90;99.90;;;;;;5055961;28;20032;-75
2023/10/22 11:28:11;;;;;;;1.25;0.70;;;12.90;99.90;;;;;;5072516;28;20438;-75
2023/10/22 11:30:39;;;;;;;2.90;1.15;;;12.90;99.90;;;;;;5072214;28;20067;-75
2023/10/22 11:33:25;;;;;;;1.77;0.60;;;12.90;99.90;;;;;;5058461;28;20048;-76
2023/10/22 11:35:53;;;;;;;0.68;0.40;;;12.80;99.90;;;;;;5072968;28;20036;-75
2023/10/22 11:38:22;;;;;;;2.67;0.70;;;12.80;99.90;;;;;;5079016;28;20403;-75
2023/10/22 11:41:00;;;;;;;1.30;0.40;;;12.90;99.90;;;;;;5083609;28;20032;-75
2023/10/22 11:43:26;;;;;;;2.65;0.50;;;12.80;99.90;;;;;;5092201;28;20499;-76
2023/10/22 11:45:56;;;;;;;5.20;1.60;;;12.80;99.90;;;;;;5092055;28;20118;-75
2023/10/22 11:48:24;;;;;;;5.18;0.70;;;12.80;99.90;;;;;;5075583;28;20044;-75
2023/10/22 11:50:51;;;;;;;4.38;0.85;;;12.70;99.90;;;;;;5092955;28;20126;-75
2023/10/22 11:53:17;;;;;;;6.25;0.75;;;12.80;99.90;;;;;;5092055;28;20503;-75
2023/10/22 11:55:43;;;;;;;1.20;0.55;;;12.70;99.90;;;;;;5091040;28;20036;-75
2023/10/22 11:58:19;;;;;;;1.38;0.38;;;12.70;99.90;;;;;;5075041;28;20089;-75
2023/10/22 12:00:45;;;;;;;2.20;0.52;;;12.80;99.90;;;;;;5075409;28;20441;-76
2023/10/22 12:03:11;;;;;;;1.85;0.47;;;12.80;99.90;;;;;;5091981;28;20040;-76
2023/10/22 12:05:36;;;;;;;5.93;0.57;;;12.70;99.90;;;;;;5093113;28;20032;-76
2023/10/22 12:08:02;;;;;;;1.67;0.38;;;12.70;99.90;;;;;;5091749;28;20047;-75
2023/10/22 12:10:28;;;;;;;0.50;0.38;;;12.70;99.90;;;;;;5091327;28;20071;-76
2023/10/22 12:12:53;;;;;;;2.10;0.60;;;12.70;99.90;;;;;;5092777;28;20396;-75
2023/10/22 12:15:20;;;;;;;3.58;0.50;;;12.60;99.90;;;;;;5092996;28;20042;-75
2023/10/22 12:17:45;;;;;;;1.58;0.40;;;12.60;99.90;;;;;;5074747;28;20108;-75
2023/10/22 12:20:11;;;;;;;2.25;0.40;;;12.50;99.90;;;;;;5091387;28;20127;-74
2023/10/22 12:22:37;;;;;;;0.70;0.50;;;12.50;99.90;;;;;;5091206;28;20415;-74
2023/10/22 12:25:06;;;;;;;3.88;0.60;;;12.50;99.90;;;;;;5092597;28;20059;-74
2023/10/22 12:27:32;;;;;;;1.67;0.75;;;12.50;99.90;;;;;;5074445;28;20036;-74
2023/10/22 12:29:58;;;;;;;1.33;0.43;;;12.40;99.90;;;;;;5091238;28;20036;-74
2023/10/22 12:32:23;;;;;;;1.23;0.50;;;12.40;99.90;;;;;;5091448;28;20048;-74
2023/10/22 12:34:49;;;;;;;1.20;0.40;;;12.50;99.90;;;;;;5091481;28;20399;-74
2023/10/22 12:37:15;;;;;;;0.93;0.40;;;12.60;99.90;;;;;;5074307;28;20554;-74
2023/10/22 12:39:43;;;;;;;2.67;0.30;;;12.70;99.90;;;;;;5091340;28;20032;-74
2023/10/22 12:42:10;;;;;;;2.78;0.30;;;12.80;99.90;;;;;;5092366;28;20044;-74
2023/10/22 12:44:37;;;;;;;1.23;0.30;;;12.80;99.90;;;;;;5091003;28;20575;-74
2023/10/22 12:47:03;;;;;;;3.38;0.40;;;12.90;99.90;;;;;;5090968;28;20068;-74